sensor_id;sensor_type;location;lat;lon;timestamp;pressure;altitude;pressure_sealevel;temperature;humidity
26859;BME280;14429;48.346;16.338;2024-02-26T00:00:32;98529.00;;;12.23;52.57
26859;BME280;14429;48.346;16.338;2024-02-26T00:02:57;98521.50;;;12.36;52.58
26859;BME280;14429;48.346;16.338;2024-02-26T00:05:23;98532.34;;;12.44;51.93
26859;BME280;14429;48.346;16.338;2024-02-26T00:07:48;98518.19;;;12.15;52.84
26859;BME280;14429;48.346;16.338;2024-02-26T00:10:15;98520.03;;;12.15;52.45
26859;BME280;14429;48.346;16.338;2024-02-26T00:12:40;98524.06;;;12.28;51.92
26859;BME280;14429;48.346;16.338;2024-02-26T00:15:08;98523.56;;;11.87;52.78
26859;BME280;14429;48.346;16.338;2024-02-26T00:17:34;98516.81;;;11.37;54.55
26859;BME280;14429;48.346;16.338;2024-02-26T00:19:59;98513.72;;;11.32;54.32
26859;BME280;14429;48.346;16.338;2024-02-26T00:22:25;98509.47;;;11.20;54.67
26859;BME280;14429;48.346;16.338;2024-02-26T00:24:50;98515.41;;;11.33;54.31
26859;BME280;14429;48.346;16.338;2024-02-26T00:27:17;98506.72;;;11.50;54.06
26859;BME280;14429;48.346;16.338;2024-02-26T00:29:42;98503.56;;;12.10;53.45
26859;BME280;14429;48.346;16.338;2024-02-26T00:32:08;98517.78;;;12.11;53.55
26859;BME280;14429;48.346;16.338;2024-02-26T00:34:33;98506.06;;;12.30;53.09
26859;BME280;14429;48.346;16.338;2024-02-26T00:36:59;98508.44;;;12.33;52.95
26859;BME280;14429;48.346;16.338;2024-02-26T00:39:24;98505.28;;;12.47;52.20
26859;BME280;14429;48.346;16.338;2024-02-26T00:41:49;98507.22;;;12.54;51.65
26859;BME280;14429;48.346;16.338;2024-02-26T00:44:16;98514.31;;;11.63;52.08
26859;BME280;14429;48.346;16.338;2024-02-26T00:46:42;98507.97;;;10.79;55.56
26859;BME280;14429;48.346;16.338;2024-02-26T00:49:07;98512.16;;;10.72;55.60
26859;BME280;14429;48.346;16.338;2024-02-26T00:51:32;98514.13;;;10.11;58.32
26859;BME280;14429;48.346;16.338;2024-02-26T00:53:58;98509.69;;;9.81;59.39
26859;BME280;14429;48.346;16.338;2024-02-26T00:56:23;98518.88;;;9.37;60.71
26859;BME280;14429;48.346;16.338;2024-02-26T00:58:49;98510.75;;;9.69;60.66
26859;BME280;14429;48.346;16.338;2024-02-26T01:01:15;98508.88;;;9.49;60.64
26859;BME280;14429;48.346;16.338;2024-02-26T01:03:41;98503.00;;;9.15;61.29
26859;BME280;14429;48.346;16.338;2024-02-26T01:06:06;98504.34;;;9.10;61.69
26859;BME280;14429;48.346;16.338;2024-02-26T01:08:32;98506.69;;;8.92;62.13
26859;BME280;14429;48.346;16.338;2024-02-26T01:10:57;98505.03;;;9.53;60.30
26859;BME280;14429;48.346;16.338;2024-02-26T01:13:22;98492.88;;;9.91;58.97
26859;BME280;14429;48.346;16.338;2024-02-26T01:15:48;98484.88;;;9.60;59.94
26859;BME280;14429;48.346;16.338;2024-02-26T01:18:15;98481.91;;;9.74;60.14
26859;BME280;14429;48.346;16.338;2024-02-26T01:20:40;98483.25;;;9.48;61.98
26859;BME280;14429;48.346;16.338;2024-02-26T01:23:05;98488.22;;;8.91;63.98
26859;BME280;14429;48.346;16.338;2024-02-26T01:25:31;98477.59;;;8.91;64.47
26859;BME280;14429;48.346;16.338;2024-02-26T01:27:56;98463.53;;;9.00;64.53
26859;BME280;14429;48.346;16.338;2024-02-26T01:30:22;98452.06;;;9.50;62.55
26859;BME280;14429;48.346;16.338;2024-02-26T01:32:47;98455.84;;;9.88;61.04
26859;BME280;14429;48.346;16.338;2024-02-26T01:35:14;98457.72;;;10.26;59.47
26859;BME280;14429;48.346;16.338;2024-02-26T01:37:39;98455.78;;;10.28;58.95
26859;BME280;14429;48.346;16.338;2024-02-26T01:40:06;98454.22;;;10.26;58.88
26859;BME280;14429;48.346;16.338;2024-02-26T01:42:31;98458.47;;;10.08;59.85
26859;BME280;14429;48.346;16.338;2024-02-26T01:44:57;98445.63;;;10.52;57.96
26859;BME280;14429;48.346;16.338;2024-02-26T01:47:22;98441.97;;;10.44;58.71
26859;BME280;14429;48.346;16.338;2024-02-26T01:49:48;98443.38;;;9.89;60.83
26859;BME280;14429;48.346;16.338;2024-02-26T01:52:15;98439.91;;;9.17;63.32
26859;BME280;14429;48.346;16.338;2024-02-26T01:54:42;98424.22;;;9.74;61.75
26859;BME280;14429;48.346;16.338;2024-02-26T01:57:10;98424.34;;;9.53;62.57
26859;BME280;14429;48.346;16.338;2024-02-26T01:59:36;98433.72;;;9.47;62.43
26859;BME280;14429;48.346;16.338;2024-02-26T02:02:03;98439.34;;;9.34;62.50
26859;BME280;14429;48.346;16.338;2024-02-26T02:04:30;98433.19;;;9.13;63.20
26859;BME280;14429;48.346;16.338;2024-02-26T02:06:57;98439.44;;;9.12;62.95
26859;BME280;14429;48.346;16.338;2024-02-26T02:09:25;98449.66;;;8.96;63.48
26859;BME280;14429;48.346;16.338;2024-02-26T02:11:50;98455.97;;;8.43;65.86
26859;BME280;14429;48.346;16.338;2024-02-26T02:14:15;98444.03;;;8.16;67.10
26859;BME280;14429;48.346;16.338;2024-02-26T02:16:41;98454.13;;;7.89;67.67
26859;BME280;14429;48.346;16.338;2024-02-26T02:19:06;98450.91;;;8.82;64.87
26859;BME280;14429;48.346;16.338;2024-02-26T02:21:33;98441.00;;;8.84;65.66
26859;BME280;14429;48.346;16.338;2024-02-26T02:23:58;98440.38;;;7.95;68.10
26859;BME280;14429;48.346;16.338;2024-02-26T02:26:24;98447.16;;;8.21;67.57
26859;BME280;14429;48.346;16.338;2024-02-26T02:28:50;98438.66;;;8.59;65.37
26859;BME280;14429;48.346;16.338;2024-02-26T02:31:15;98440.03;;;8.85;63.96
26859;BME280;14429;48.346;16.338;2024-02-26T02:33:41;98441.53;;;8.67;64.93
26859;BME280;14429;48.346;16.338;2024-02-26T02:36:07;98440.63;;;9.19;63.21
26859;BME280;14429;48.346;16.338;2024-02-26T02:38:34;98432.97;;;9.05;63.24
26859;BME280;14429;48.346;16.338;2024-02-26T02:40:59;98430.22;;;8.54;64.34
26859;BME280;14429;48.346;16.338;2024-02-26T02:43:24;98423.75;;;8.26;65.69
26859;BME280;14429;48.346;16.338;2024-02-26T02:45:50;98426.31;;;8.27;66.69
26859;BME280;14429;48.346;16.338;2024-02-26T02:48:15;98428.59;;;8.32;65.84
26859;BME280;14429;48.346;16.338;2024-02-26T02:50:41;98429.56;;;8.20;66.58
26859;BME280;14429;48.346;16.338;2024-02-26T02:53:06;98426.19;;;8.18;67.19
26859;BME280;14429;48.346;16.338;2024-02-26T02:55:33;98416.53;;;8.28;67.34
26859;BME280;14429;48.346;16.338;2024-02-26T02:57:58;98422.69;;;8.07;68.82
26859;BME280;14429;48.346;16.338;2024-02-26T03:00:24;98425.16;;;8.51;66.00
26859;BME280;14429;48.346;16.338;2024-02-26T03:02:49;98413.63;;;8.20;66.10
26859;BME280;14429;48.346;16.338;2024-02-26T03:05:15;98421.84;;;8.28;66.02
26859;BME280;14429;48.346;16.338;2024-02-26T03:07:41;98422.00;;;8.68;65.16
26859;BME280;14429;48.346;16.338;2024-02-26T03:10:07;98424.69;;;8.46;64.83
26859;BME280;14429;48.346;16.338;2024-02-26T03:12:34;98418.41;;;8.47;65.15
26859;BME280;14429;48.346;16.338;2024-02-26T03:14:59;98414.66;;;8.91;64.63
26859;BME280;14429;48.346;16.338;2024-02-26T03:17:25;98409.63;;;9.29;63.21
26859;BME280;14429;48.346;16.338;2024-02-26T03:19:50;98409.03;;;8.33;65.20
26859;BME280;14429;48.346;16.338;2024-02-26T03:22:16;98409.84;;;8.86;64.81
26859;BME280;14429;48.346;16.338;2024-02-26T03:24:41;98401.47;;;9.21;62.12
26859;BME280;14429;48.346;16.338;2024-02-26T03:27:06;98404.88;;;8.92;64.29
26859;BME280;14429;48.346;16.338;2024-02-26T03:29:33;98410.94;;;8.41;65.64
26859;BME280;14429;48.346;16.338;2024-02-26T03:31:59;98413.31;;;8.55;65.44
26859;BME280;14429;48.346;16.338;2024-02-26T03:34:24;98405.47;;;8.54;64.43
26859;BME280;14429;48.346;16.338;2024-02-26T03:36:49;98407.34;;;8.32;66.07
26859;BME280;14429;48.346;16.338;2024-02-26T03:39:15;98409.88;;;8.33;64.60
26859;BME280;14429;48.346;16.338;2024-02-26T03:41:40;98395.72;;;8.43;65.10
26859;BME280;14429;48.346;16.338;2024-02-26T03:44:05;98399.75;;;8.69;65.45
26859;BME280;14429;48.346;16.338;2024-02-26T03:46:32;98380.25;;;9.30;62.90
26859;BME280;14429;48.346;16.338;2024-02-26T03:48:58;98378.75;;;10.16;60.17
26859;BME280;14429;48.346;16.338;2024-02-26T03:51:23;98381.13;;;10.58;57.62
26859;BME280;14429;48.346;16.338;2024-02-26T03:53:48;98379.75;;;10.73;57.41
26859;BME280;14429;48.346;16.338;2024-02-26T03:56:14;98376.53;;;10.88;56.53
26859;BME280;14429;48.346;16.338;2024-02-26T03:58:39;98385.66;;;11.23;55.50
26859;BME280;14429;48.346;16.338;2024-02-26T04:01:07;98382.28;;;11.49;54.41
26859;BME280;14429;48.346;16.338;2024-02-26T04:03:34;98381.06;;;10.30;57.25
26859;BME280;14429;48.346;16.338;2024-02-26T04:05:59;98374.63;;;10.42;57.50
26859;BME280;14429;48.346;16.338;2024-02-26T04:08:24;98374.16;;;10.85;56.79
26859;BME280;14429;48.346;16.338;2024-02-26T04:10:50;98384.63;;;9.81;58.76
26859;BME280;14429;48.346;16.338;2024-02-26T04:13:17;98379.66;;;9.87;59.02
26859;BME280;14429;48.346;16.338;2024-02-26T04:15:43;98378.75;;;10.16;58.99
26859;BME280;14429;48.346;16.338;2024-02-26T04:18:08;98377.09;;;10.15;58.15
26859;BME280;14429;48.346;16.338;2024-02-26T04:20:35;98388.53;;;9.77;58.23
26859;BME280;14429;48.346;16.338;2024-02-26T04:23:00;98385.31;;;9.33;59.90
26859;BME280;14429;48.346;16.338;2024-02-26T04:25:26;98369.75;;;10.08;58.66
26859;BME280;14429;48.346;16.338;2024-02-26T04:27:51;98384.38;;;10.13;56.24
26859;BME280;14429;48.346;16.338;2024-02-26T04:30:17;98374.41;;;10.63;57.26
26859;BME280;14429;48.346;16.338;2024-02-26T04:32:42;98369.22;;;11.08;56.24
26859;BME280;14429;48.346;16.338;2024-02-26T04:35:08;98371.88;;;11.36;55.21
26859;BME280;14429;48.346;16.338;2024-02-26T04:37:35;98378.47;;;10.58;56.62
26859;BME280;14429;48.346;16.338;2024-02-26T04:40:01;98370.22;;;10.70;57.66
26859;BME280;14429;48.346;16.338;2024-02-26T04:42:27;98381.25;;;10.56;57.80
26859;BME280;14429;48.346;16.338;2024-02-26T04:44:52;98374.84;;;10.11;56.03
26859;BME280;14429;48.346;16.338;2024-02-26T04:47:18;98377.28;;;9.94;58.58
26859;BME280;14429;48.346;16.338;2024-02-26T04:49:43;98375.84;;;9.90;58.95
26859;BME280;14429;48.346;16.338;2024-02-26T04:52:09;98372.59;;;9.37;59.17
26859;BME280;14429;48.346;16.338;2024-02-26T04:54:35;98382.41;;;10.15;58.63
26859;BME280;14429;48.346;16.338;2024-02-26T04:57:01;98377.09;;;10.15;58.03
26859;BME280;14429;48.346;16.338;2024-02-26T04:59:26;98372.69;;;10.53;57.05
26859;BME280;14429;48.346;16.338;2024-02-26T05:01:52;98373.34;;;10.27;55.80
26859;BME280;14429;48.346;16.338;2024-02-26T05:04:17;98376.00;;;9.68;58.13
26859;BME280;14429;48.346;16.338;2024-02-26T05:06:42;98376.00;;;9.68;57.34
26859;BME280;14429;48.346;16.338;2024-02-26T05:09:08;98380.00;;;10.12;57.45
26859;BME280;14429;48.346;16.338;2024-02-26T05:11:34;98381.22;;;9.49;58.87
26859;BME280;14429;48.346;16.338;2024-02-26T05:14:00;98380.44;;;10.65;58.09
26859;BME280;14429;48.346;16.338;2024-02-26T05:16:25;98377.56;;;9.70;60.17
26859;BME280;14429;48.346;16.338;2024-02-26T05:18:51;98377.22;;;9.84;59.92
26859;BME280;14429;48.346;16.338;2024-02-26T05:21:16;98373.44;;;10.16;58.02
26859;BME280;14429;48.346;16.338;2024-02-26T05:23:42;98376.38;;;9.84;59.43
26859;BME280;14429;48.346;16.338;2024-02-26T05:26:07;98380.91;;;10.31;58.66
26859;BME280;14429;48.346;16.338;2024-02-26T05:28:34;98373.56;;;10.91;56.66
26859;BME280;14429;48.346;16.338;2024-02-26T05:30:59;98380.75;;;10.23;57.97
26859;BME280;14429;48.346;16.338;2024-02-26T05:33:25;98384.78;;;10.66;56.88
26859;BME280;14429;48.346;16.338;2024-02-26T05:35:50;98379.22;;;10.30;57.76
26859;BME280;14429;48.346;16.338;2024-02-26T05:38:16;98396.13;;;10.11;58.64
26859;BME280;14429;48.346;16.338;2024-02-26T05:40:41;98379.38;;;9.70;59.96
26859;BME280;14429;48.346;16.338;2024-02-26T05:43:06;98380.53;;;10.36;58.67
26859;BME280;14429;48.346;16.338;2024-02-26T05:45:33;98384.72;;;10.29;58.44
26859;BME280;14429;48.346;16.338;2024-02-26T05:47:59;98391.41;;;10.23;57.72
26859;BME280;14429;48.346;16.338;2024-02-26T05:50:24;98393.50;;;10.20;58.85
26859;BME280;14429;48.346;16.338;2024-02-26T05:52:49;98394.22;;;10.31;58.71
26859;BME280;14429;48.346;16.338;2024-02-26T05:55:15;98392.47;;;10.12;58.29
26859;BME280;14429;48.346;16.338;2024-02-26T05:57:40;98406.50;;;10.52;56.73
26859;BME280;14429;48.346;16.338;2024-02-26T06:00:07;98401.19;;;10.71;57.51
26859;BME280;14429;48.346;16.338;2024-02-26T06:02:34;98406.78;;;10.68;57.18
26859;BME280;14429;48.346;16.338;2024-02-26T06:04:59;98404.59;;;10.25;57.53
26859;BME280;14429;48.346;16.338;2024-02-26T06:07:24;98404.88;;;11.26;54.98
26859;BME280;14429;48.346;16.338;2024-02-26T06:09:50;98403.56;;;10.55;56.70
26859;BME280;14429;48.346;16.338;2024-02-26T06:12:15;98412.06;;;10.01;59.39
26859;BME280;14429;48.346;16.338;2024-02-26T06:14:42;98417.34;;;10.31;58.39
26859;BME280;14429;48.346;16.338;2024-02-26T06:17:07;98425.59;;;9.29;61.68
26859;BME280;14429;48.346;16.338;2024-02-26T06:19:34;98419.63;;;9.56;61.12
26859;BME280;14429;48.346;16.338;2024-02-26T06:21:59;98426.44;;;9.69;60.88
26859;BME280;14429;48.346;16.338;2024-02-26T06:24:25;98424.03;;;9.87;59.20
26859;BME280;14429;48.346;16.338;2024-02-26T06:26:50;98420.84;;;10.22;59.17
26859;BME280;14429;48.346;16.338;2024-02-26T06:29:16;98420.47;;;10.84;58.04
26859;BME280;14429;48.346;16.338;2024-02-26T06:31:41;98417.25;;;9.83;61.43
26859;BME280;14429;48.346;16.338;2024-02-26T06:34:06;98418.34;;;11.34;55.99
26859;BME280;14429;48.346;16.338;2024-02-26T06:36:33;98417.03;;;10.54;58.95
26859;BME280;14429;48.346;16.338;2024-02-26T06:38:59;98417.19;;;10.71;57.66
26859;BME280;14429;48.346;16.338;2024-02-26T06:41:24;98421.34;;;10.46;58.14
26859;BME280;14429;48.346;16.338;2024-02-26T06:43:49;98433.22;;;10.90;56.27
26859;BME280;14429;48.346;16.338;2024-02-26T06:46:15;98440.13;;;11.57;53.61
26859;BME280;14429;48.346;16.338;2024-02-26T06:48:40;98443.03;;;10.80;57.00
26859;BME280;14429;48.346;16.338;2024-02-26T06:51:06;98446.88;;;10.09;60.67
26859;BME280;14429;48.346;16.338;2024-02-26T06:53:32;98443.97;;;9.92;61.06
26859;BME280;14429;48.346;16.338;2024-02-26T06:55:58;98441.22;;;10.03;61.00
26859;BME280;14429;48.346;16.338;2024-02-26T06:58:23;98444.97;;;10.00;61.16
26859;BME280;14429;48.346;16.338;2024-02-26T07:00:48;98440.47;;;10.21;60.14
26859;BME280;14429;48.346;16.338;2024-02-26T07:03:14;98436.84;;;10.31;60.02
26859;BME280;14429;48.346;16.338;2024-02-26T07:05:39;98438.66;;;10.01;61.06
26859;BME280;14429;48.346;16.338;2024-02-26T07:08:06;98431.66;;;10.00;60.96
26859;BME280;14429;48.346;16.338;2024-02-26T07:10:33;98442.41;;;9.90;61.17
26859;BME280;14429;48.346;16.338;2024-02-26T07:12:58;98433.28;;;10.51;59.43
26859;BME280;14429;48.346;16.338;2024-02-26T07:15:24;98434.00;;;10.23;59.95
26859;BME280;14429;48.346;16.338;2024-02-26T07:17:49;98437.53;;;9.95;60.89
26859;BME280;14429;48.346;16.338;2024-02-26T07:20:15;98441.84;;;10.54;58.77
26859;BME280;14429;48.346;16.338;2024-02-26T07:22:40;98443.94;;;10.51;58.71
26859;BME280;14429;48.346;16.338;2024-02-26T07:25:06;98440.66;;;10.77;57.70
26859;BME280;14429;48.346;16.338;2024-02-26T07:27:33;98441.78;;;10.84;57.18
26859;BME280;14429;48.346;16.338;2024-02-26T07:29:58;98438.84;;;11.05;56.53
26859;BME280;14429;48.346;16.338;2024-02-26T07:32:24;98436.59;;;10.92;57.64
26859;BME280;14429;48.346;16.338;2024-02-26T07:34:49;98442.06;;;11.09;57.37
26859;BME280;14429;48.346;16.338;2024-02-26T07:37:14;98447.69;;;11.15;57.47
26859;BME280;14429;48.346;16.338;2024-02-26T07:39:40;98439.00;;;11.69;54.85
26859;BME280;14429;48.346;16.338;2024-02-26T07:42:05;98442.66;;;11.68;54.66
26859;BME280;14429;48.346;16.338;2024-02-26T07:44:32;98444.34;;;11.60;54.79
26859;BME280;14429;48.346;16.338;2024-02-26T07:46:58;98442.09;;;11.37;57.59
26859;BME280;14429;48.346;16.338;2024-02-26T07:49:23;98443.22;;;11.53;57.29
26859;BME280;14429;48.346;16.338;2024-02-26T07:51:48;98445.91;;;11.62;56.84
26859;BME280;14429;48.346;16.338;2024-02-26T07:54:14;98449.47;;;11.99;53.71
26859;BME280;14429;48.346;16.338;2024-02-26T07:56:39;98448.50;;;12.00;56.00
26859;BME280;14429;48.346;16.338;2024-02-26T07:59:05;98453.50;;;12.12;53.86
26859;BME280;14429;48.346;16.338;2024-02-26T08:01:31;98457.31;;;12.10;53.79
26859;BME280;14429;48.346;16.338;2024-02-26T08:03:57;98452.28;;;12.07;55.66
26859;BME280;14429;48.346;16.338;2024-02-26T08:06:23;98450.00;;;12.12;54.21
26859;BME280;14429;48.346;16.338;2024-02-26T08:08:49;98455.34;;;12.12;56.08
26859;BME280;14429;48.346;16.338;2024-02-26T08:11:14;98457.59;;;12.16;53.94
26859;BME280;14429;48.346;16.338;2024-02-26T08:13:39;98453.53;;;12.03;56.13
26859;BME280;14429;48.346;16.338;2024-02-26T08:16:05;98448.50;;;12.00;55.90
26859;BME280;14429;48.346;16.338;2024-02-26T08:18:32;98453.78;;;12.18;54.28
26859;BME280;14429;48.346;16.338;2024-02-26T08:20:57;98445.00;;;12.35;51.81
26859;BME280;14429;48.346;16.338;2024-02-26T08:23:23;98458.50;;;12.34;52.58
26859;BME280;14429;48.346;16.338;2024-02-26T08:25:48;98455.97;;;12.32;53.01
26859;BME280;14429;48.346;16.338;2024-02-26T08:28:14;98454.56;;;12.28;53.32
26859;BME280;14429;48.346;16.338;2024-02-26T08:30:39;98458.53;;;12.24;53.24
26859;BME280;14429;48.346;16.338;2024-02-26T08:33:05;98456.56;;;12.26;53.91
26859;BME280;14429;48.346;16.338;2024-02-26T08:35:31;98454.56;;;12.28;54.36
26859;BME280;14429;48.346;16.338;2024-02-26T08:37:57;98460.75;;;12.29;54.63
26859;BME280;14429;48.346;16.338;2024-02-26T08:40:22;98462.19;;;12.33;52.12
26859;BME280;14429;48.346;16.338;2024-02-26T08:42:48;98468.75;;;12.38;52.04
26859;BME280;14429;48.346;16.338;2024-02-26T08:45:13;98460.16;;;12.44;52.06
26859;BME280;14429;48.346;16.338;2024-02-26T08:47:38;98465.44;;;12.53;53.30
26859;BME280;14429;48.346;16.338;2024-02-26T08:50:05;98460.69;;;12.47;53.74
26859;BME280;14429;48.346;16.338;2024-02-26T08:52:32;98458.88;;;12.48;51.90
26859;BME280;14429;48.346;16.338;2024-02-26T08:54:57;98461.56;;;12.38;52.14
26859;BME280;14429;48.346;16.338;2024-02-26T08:57:22;98457.84;;;12.22;52.96
26859;BME280;14429;48.346;16.338;2024-02-26T08:59:48;98457.06;;;12.39;54.00
26859;BME280;14429;48.346;16.338;2024-02-26T09:02:13;98452.31;;;12.33;53.53
26859;BME280;14429;48.346;16.338;2024-02-26T09:04:39;98454.00;;;12.34;52.77
26859;BME280;14429;48.346;16.338;2024-02-26T09:07:04;98453.28;;;12.32;53.37
26859;BME280;14429;48.346;16.338;2024-02-26T09:09:31;98443.91;;;12.55;53.53
26859;BME280;14429;48.346;16.338;2024-02-26T09:11:56;98448.66;;;12.61;53.82
26859;BME280;14429;48.346;16.338;2024-02-26T09:14:22;98454.72;;;12.63;51.28
26859;BME280;14429;48.346;16.338;2024-02-26T09:16:47;98452.38;;;12.86;51.54
26859;BME280;14429;48.346;16.338;2024-02-26T09:19:13;98452.06;;;12.63;51.81
26859;BME280;14429;48.346;16.338;2024-02-26T09:21:42;98451.63;;;12.58;51.79
26859;BME280;14429;48.346;16.338;2024-02-26T09:24:07;98457.28;;;12.55;52.77
26859;BME280;14429;48.346;16.338;2024-02-26T09:26:34;98447.38;;;12.65;52.18
26859;BME280;14429;48.346;16.338;2024-02-26T09:28:59;98453.34;;;12.59;53.71
26859;BME280;14429;48.346;16.338;2024-02-26T09:31:25;98457.59;;;12.52;52.79
26859;BME280;14429;48.346;16.338;2024-02-26T09:33:50;98455.50;;;12.46;53.05
26859;BME280;14429;48.346;16.338;2024-02-26T09:36:16;98452.53;;;12.49;52.62
26859;BME280;14429;48.346;16.338;2024-02-26T09:38:41;98472.53;;;12.45;52.35
26859;BME280;14429;48.346;16.338;2024-02-26T09:41:06;98453.91;;;12.53;53.30
26859;BME280;14429;48.346;16.338;2024-02-26T09:43:43;98458.13;;;12.55;52.09
26859;BME280;14429;48.346;16.338;2024-02-26T09:46:09;98469.06;;;12.62;52.56
26859;BME280;14429;48.346;16.338;2024-02-26T09:48:35;98461.38;;;12.59;51.12
26859;BME280;14429;48.346;16.338;2024-02-26T09:51:02;98470.16;;;12.68;50.68
26859;BME280;14429;48.346;16.338;2024-02-26T09:53:29;98470.16;;;12.68;51.12
26859;BME280;14429;48.346;16.338;2024-02-26T09:55:55;98462.75;;;12.63;51.22
26859;BME280;14429;48.346;16.338;2024-02-26T09:58:21;98483.38;;;12.79;51.81
26859;BME280;14429;48.346;16.338;2024-02-26T10:00:51;98469.78;;;12.64;51.79
26859;BME280;14429;48.346;16.338;2024-02-26T10:03:19;98474.31;;;12.54;51.98
26859;BME280;14429;48.346;16.338;2024-02-26T10:05:49;98474.72;;;12.59;52.11
26859;BME280;14429;48.346;16.338;2024-02-26T10:08:16;98470.34;;;12.58;52.56
26859;BME280;14429;48.346;16.338;2024-02-26T10:10:42;98471.59;;;12.63;52.56
26859;BME280;14429;48.346;16.338;2024-02-26T10:13:08;98468.50;;;12.67;52.94
26859;BME280;14429;48.346;16.338;2024-02-26T10:15:34;98470.88;;;12.70;51.83
26859;BME280;14429;48.346;16.338;2024-02-26T10:18:03;98470.78;;;12.63;52.10
26859;BME280;14429;48.346;16.338;2024-02-26T10:20:29;98465.34;;;12.72;51.68
26859;BME280;14429;48.346;16.338;2024-02-26T10:22:54;98470.09;;;12.87;51.04
26859;BME280;14429;48.346;16.338;2024-02-26T10:25:20;98472.97;;;12.76;51.17
26859;BME280;14429;48.346;16.338;2024-02-26T10:27:45;98474.59;;;12.87;51.02
26859;BME280;14429;48.346;16.338;2024-02-26T10:30:19;98463.06;;;12.86;51.08
26859;BME280;14429;48.346;16.338;2024-02-26T10:32:45;98480.78;;;12.87;50.89
26859;BME280;14429;48.346;16.338;2024-02-26T10:35:12;98461.56;;;13.01;50.92
26859;BME280;14429;48.346;16.338;2024-02-26T10:37:37;98469.13;;;13.05;51.30
26859;BME280;14429;48.346;16.338;2024-02-26T10:40:03;98473.34;;;13.08;51.67
26859;BME280;14429;48.346;16.338;2024-02-26T10:42:30;98466.72;;;13.12;51.09
26859;BME280;14429;48.346;16.338;2024-02-26T10:44:57;98465.50;;;13.23;50.07
26859;BME280;14429;48.346;16.338;2024-02-26T10:47:23;98465.75;;;12.86;51.03
26859;BME280;14429;48.346;16.338;2024-02-26T10:49:50;98471.00;;;12.78;51.51
26859;BME280;14429;48.346;16.338;2024-02-26T10:52:19;98470.28;;;13.03;52.29
26859;BME280;14429;48.346;16.338;2024-02-26T10:54:47;98465.41;;;13.16;50.64
26859;BME280;14429;48.346;16.338;2024-02-26T10:57:14;98466.16;;;13.25;49.90
26859;BME280;14429;48.346;16.338;2024-02-26T10:59:42;98460.22;;;13.31;50.73
26859;BME280;14429;48.346;16.338;2024-02-26T11:02:08;98455.47;;;13.25;50.05
26859;BME280;14429;48.346;16.338;2024-02-26T11:04:35;98459.34;;;13.14;49.72
26859;BME280;14429;48.346;16.338;2024-02-26T11:07:02;98460.94;;;13.07;50.01
26859;BME280;14429;48.346;16.338;2024-02-26T11:09:30;98450.34;;;13.15;50.19
26859;BME280;14429;48.346;16.338;2024-02-26T11:11:57;98471.38;;;12.83;51.06
26859;BME280;14429;48.346;16.338;2024-02-26T11:14:22;98464.44;;;12.90;51.24
26859;BME280;14429;48.346;16.338;2024-02-26T11:16:49;98464.53;;;12.98;50.71
26859;BME280;14429;48.346;16.338;2024-02-26T11:19:16;98467.47;;;13.04;50.66
26859;BME280;14429;48.346;16.338;2024-02-26T11:21:42;98466.78;;;13.20;50.35
26859;BME280;14429;48.346;16.338;2024-02-26T11:24:08;98461.72;;;13.17;49.83
26859;BME280;14429;48.346;16.338;2024-02-26T11:26:40;98459.13;;;13.24;49.48
26859;BME280;14429;48.346;16.338;2024-02-26T11:29:09;98468.25;;;13.31;49.29
26859;BME280;14429;48.346;16.338;2024-02-26T11:31:37;98453.72;;;13.34;48.80
26859;BME280;14429;48.346;16.338;2024-02-26T11:34:03;98450.13;;;13.60;49.86
26859;BME280;14429;48.346;16.338;2024-02-26T11:36:29;98445.50;;;13.70;49.41
26859;BME280;14429;48.346;16.338;2024-02-26T11:38:55;98450.56;;;13.73;48.86
26859;BME280;14429;48.346;16.338;2024-02-26T11:41:20;98446.44;;;13.61;49.11
26859;BME280;14429;48.346;16.338;2024-02-26T11:43:57;98442.31;;;13.49;49.57
26859;BME280;14429;48.346;16.338;2024-02-26T11:46:27;98436.66;;;13.52;49.44
26859;BME280;14429;48.346;16.338;2024-02-26T11:48:54;98426.91;;;13.68;48.90
26859;BME280;14429;48.346;16.338;2024-02-26T11:51:25;98422.34;;;13.61;49.04
26859;BME280;14429;48.346;16.338;2024-02-26T11:53:50;98426.75;;;13.70;49.00
26859;BME280;14429;48.346;16.338;2024-02-26T11:56:25;98430.06;;;13.64;48.93
26859;BME280;14429;48.346;16.338;2024-02-26T11:58:58;98440.31;;;13.51;49.14
26859;BME280;14429;48.346;16.338;2024-02-26T12:01:41;98434.75;;;13.45;48.78
26859;BME280;14429;48.346;16.338;2024-02-26T12:04:08;98440.66;;;13.48;48.48
26859;BME280;14429;48.346;16.338;2024-02-26T12:06:44;98438.66;;;13.16;49.05
26859;BME280;14429;48.346;16.338;2024-02-26T12:09:10;98419.53;;;13.11;48.53
26859;BME280;14429;48.346;16.338;2024-02-26T12:11:37;98416.94;;;13.19;48.86
26859;BME280;14429;48.346;16.338;2024-02-26T12:14:05;98431.84;;;13.04;50.06
26859;BME280;14429;48.346;16.338;2024-02-26T12:16:35;98420.22;;;13.13;49.94
26859;BME280;14429;48.346;16.338;2024-02-26T12:19:00;98423.91;;;13.12;50.01
26859;BME280;14429;48.346;16.338;2024-02-26T12:21:26;98419.13;;;12.89;50.78
26859;BME280;14429;48.346;16.338;2024-02-26T12:23:52;98423.63;;;12.88;50.21
26859;BME280;14429;48.346;16.338;2024-02-26T12:26:17;98414.88;;;13.30;48.75
26859;BME280;14429;48.346;16.338;2024-02-26T12:28:43;98423.66;;;13.22;49.38
26859;BME280;14429;48.346;16.338;2024-02-26T12:31:09;98418.16;;;13.41;46.98
26859;BME280;14429;48.346;16.338;2024-02-26T12:33:35;98412.56;;;13.35;47.50
26859;BME280;14429;48.346;16.338;2024-02-26T12:36:00;98415.41;;;13.16;49.06
26859;BME280;14429;48.346;16.338;2024-02-26T12:38:27;98412.63;;;13.25;47.91
26859;BME280;14429;48.346;16.338;2024-02-26T12:40:52;98410.19;;;13.32;47.91
26859;BME280;14429;48.346;16.338;2024-02-26T12:43:18;98410.06;;;13.33;48.09
26859;BME280;14429;48.346;16.338;2024-02-26T12:45:43;98401.25;;;13.06;50.15